createdAt,value
2019-02-02T00:00:57.686Z,98791.93
2019-02-02T00:05:02.671Z,98784.88
2019-02-02T00:09:09.472Z,98782.57
2019-02-02T00:13:14.397Z,98775.61
2019-02-02T00:17:19.294Z,98776.21
2019-02-02T00:21:24.175Z,98779.65
2019-02-02T00:25:29.096Z,98785.80
2019-02-02T00:29:33.973Z,98785.25
2019-02-02T00:33:39.182Z,98773.68
2019-02-02T00:37:44.080Z,98781.47
2019-02-02T00:41:48.968Z,98784.97
2019-02-02T00:45:53.863Z,98781.84
2019-02-02T00:49:59.196Z,98793.73
2019-02-02T00:54:04.137Z,98799.16
2019-02-02T00:58:09.057Z,98799.19
2019-02-02T01:02:13.955Z,98788.89
2019-02-02T01:06:19.521Z,98794.38
2019-02-02T01:10:28.462Z,98791.76
2019-02-02T01:14:33.368Z,98797.30
2019-02-02T01:18:38.332Z,98803.53
2019-02-02T01:22:43.227Z,98818.48
2019-02-02T01:26:48.376Z,98811.78
2019-02-02T01:30:53.580Z,98813.82
2019-02-02T01:34:58.519Z,98804.41
2019-02-02T01:39:04.378Z,98816.11
2019-02-02T01:43:09.289Z,98814.41
2019-02-02T01:47:14.275Z,98819.30
2019-02-02T01:51:19.502Z,98812.02
2019-02-02T01:55:24.521Z,98808.16
2019-02-02T01:59:29.396Z,98812.12
2019-02-02T02:03:34.644Z,98820.01
2019-02-02T02:07:39.533Z,98820.57
2019-02-02T02:11:44.485Z,98814.12
2019-02-02T02:15:49.414Z,98820.44
2019-02-02T02:19:54.278Z,98823.19
2019-02-02T02:23:59.255Z,98822.17
2019-02-02T02:28:04.137Z,98818.19
2019-02-02T02:32:09.099Z,98819.55
2019-02-02T02:36:14.270Z,98816.92
2019-02-02T02:40:21.822Z,98801.34
2019-02-02T02:44:26.785Z,98815.66
2019-02-02T02:48:31.667Z,98811.13
2019-02-02T02:52:36.556Z,98815.02
2019-02-02T02:56:41.515Z,98825.88
2019-02-02T03:00:46.417Z,98833.77
2019-02-02T03:04:51.301Z,98839.48
2019-02-02T03:08:56.497Z,98846.70
2019-02-02T03:13:01.615Z,98848.80
2019-02-02T03:17:06.614Z,98846.95
2019-02-02T03:21:11.802Z,98849.20
2019-02-02T03:25:22.391Z,98869.96
2019-02-02T03:29:27.290Z,98855.67
2019-02-02T03:33:32.260Z,98841.80
2019-02-02T03:37:37.130Z,98863.27
2019-02-02T03:41:42.134Z,98861.73
2019-02-02T03:45:47.020Z,98863.09
2019-02-02T03:49:51.906Z,98866.70
2019-02-02T03:54:08.273Z,98869.14
2019-02-02T03:58:03.479Z,98865.03
2019-02-02T04:02:08.698Z,98876.30
2019-02-02T04:06:13.678Z,98873.27
2019-02-02T04:10:18.656Z,98890.77
2019-02-02T04:14:23.663Z,98887.44
2019-02-02T04:18:28.609Z,98891.51
2019-02-02T04:22:35.687Z,98888.15
2019-02-02T04:26:40.112Z,98899.45
2019-02-02T04:30:45.011Z,98908.09
2019-02-02T04:34:49.922Z,98906.05
2019-02-02T04:38:54.817Z,98915.68
2019-02-02T04:43:01.782Z,98914.38
2019-02-02T04:47:06.299Z,98909.16
2019-02-02T04:51:11.203Z,98913.23
2019-02-02T04:55:17.582Z,98920.20
2019-02-02T04:59:29.085Z,98919.22
2019-02-02T05:03:29.136Z,98931.78
2019-02-02T05:07:34.028Z,98927.80
2019-02-02T05:11:38.930Z,98927.00
2019-02-02T05:15:43.825Z,98923.91
2019-02-02T05:19:49.049Z,98923.08
2019-02-02T05:23:54.416Z,98917.67
2019-02-02T05:27:59.300Z,98918.48
2019-02-02T05:32:04.207Z,98915.33
2019-02-02T05:36:09.096Z,98927.09
2019-02-02T05:40:15.855Z,98933.39
2019-02-02T05:44:21.047Z,98933.39
2019-02-02T05:48:25.949Z,98940.45
2019-02-02T05:52:30.846Z,98937.95
2019-02-02T05:56:35.776Z,98949.72
2019-02-02T06:00:44.333Z,98951.63
2019-02-02T06:04:49.439Z,98950.63
2019-02-02T06:08:54.393Z,98961.89
2019-02-02T06:12:59.367Z,98972.85
2019-02-02T06:17:04.825Z,98974.11
2019-02-02T06:21:09.708Z,98971.16
2019-02-02T06:25:14.772Z,98967.26
2019-02-02T06:29:19.775Z,98970.78
2019-02-02T06:33:24.697Z,98974.86
2019-02-02T06:37:29.618Z,98968.96
2019-02-02T06:41:34.673Z,98969.63
2019-02-02T06:45:39.575Z,98980.31
2019-02-02T06:49:44.458Z,98986.81
2019-02-02T06:53:50.230Z,98984.82
2019-02-02T06:57:55.673Z,98991.43
2019-02-02T07:02:00.608Z,98999.73
2019-02-02T07:06:05.655Z,99010.08
2019-02-02T07:10:14.487Z,99022.41
2019-02-02T07:14:19.384Z,99021.62
2019-02-02T07:18:24.277Z,99018.20
2019-02-02T07:22:29.372Z,99026.48
2019-02-02T07:26:34.783Z,99030.89
2019-02-02T07:30:39.679Z,99040.38
2019-02-02T07:34:45.035Z,99042.16
2019-02-02T07:38:50.050Z,99045.06
2019-02-02T07:42:54.911Z,99055.56
2019-02-02T07:46:59.800Z,99059.81
2019-02-02T07:51:04.737Z,99064.81
2019-02-02T07:55:11.472Z,99074.14
2019-02-02T07:59:16.484Z,99079.45
2019-02-02T08:03:21.463Z,99095.20
2019-02-02T08:07:26.385Z,99086.01
2019-02-02T08:11:31.295Z,99094.14
2019-02-02T08:15:36.186Z,99098.64
2019-02-02T08:19:41.083Z,99110.03
2019-02-02T08:23:46.015Z,99111.55
2019-02-02T08:27:50.936Z,99116.53
2019-02-02T08:31:55.838Z,99137.38
2019-02-02T08:36:04.054Z,99142.69
2019-02-02T08:40:09.832Z,99146.02
2019-02-02T08:44:14.843Z,99158.81
2019-02-02T08:48:19.853Z,99171.28
2019-02-02T08:52:24.813Z,99180.27
2019-02-02T08:56:30.185Z,99185.53
2019-02-02T09:00:35.101Z,99198.28
2019-02-02T09:04:39.997Z,99195.20
2019-02-02T09:08:45.210Z,99203.36
2019-02-02T09:12:50.121Z,99204.72
2019-02-02T09:16:55.007Z,99224.61
2019-02-02T09:21:00.092Z,99218.48
2019-02-02T09:25:05.956Z,99224.27
2019-02-02T09:29:10.870Z,99233.42
2019-02-02T09:33:15.876Z,99236.19
2019-02-02T09:37:21.065Z,99239.38
2019-02-02T09:41:26.133Z,99238.85
2019-02-02T09:45:31.038Z,99242.05
2019-02-02T09:49:36.036Z,99249.14
2019-02-02T09:53:40.949Z,99253.05
2019-02-02T09:57:46.175Z,99252.86
2019-02-02T10:01:51.128Z,99258.61
2019-02-02T10:05:56.218Z,99262.37
2019-02-02T10:10:01.415Z,99276.67
2019-02-02T10:14:06.411Z,99278.64
2019-02-02T10:18:11.614Z,99278.86
2019-02-02T10:22:16.526Z,99297.89
2019-02-02T10:26:21.735Z,99298.41
2019-02-02T10:30:32.530Z,99303.36
2019-02-02T10:34:37.429Z,99315.77
2019-02-02T10:38:42.427Z,99317.99
2019-02-02T10:42:47.441Z,99320.58
2019-02-02T10:46:52.403Z,99312.95
2019-02-02T10:50:57.634Z,99314.79
2019-02-02T10:55:02.618Z,99311.77
2019-02-02T10:59:08.800Z,99311.73
2019-02-02T11:03:14.542Z,99313.50
2019-02-02T11:07:19.951Z,99315.28
2019-02-02T11:11:24.916Z,99313.43
2019-02-02T11:15:30.269Z,99317.30
2019-02-02T11:19:35.203Z,99326.50
2019-02-02T11:23:40.197Z,99332.33
2019-02-02T11:27:45.306Z,99337.84
2019-02-02T11:32:02.217Z,99342.77
2019-02-02T11:35:57.582Z,99340.39
2019-02-02T11:40:02.999Z,99344.25
2019-02-02T11:44:08.288Z,99350.39
2019-02-02T11:48:15.093Z,99354.08
2019-02-02T11:52:23.230Z,99357.62
2019-02-02T11:56:27.064Z,99371.56
2019-02-02T12:00:42.780Z,99379.41
2019-02-02T12:04:47.711Z,99382.66
2019-02-02T12:08:53.032Z,99386.79
2019-02-02T12:12:58.080Z,99390.27
2019-02-02T12:17:03.385Z,99398.53
2019-02-02T12:21:14.194Z,99414.80
2019-02-02T12:25:19.162Z,99424.28
2019-02-02T12:29:24.033Z,99433.17
2019-02-02T12:33:29.320Z,99447.11
2019-02-02T12:37:34.540Z,99443.14
2019-02-02T12:41:39.535Z,99450.88
2019-02-02T12:45:51.318Z,99453.42
2019-02-02T12:49:56.460Z,99462.73
2019-02-02T12:54:01.428Z,99451.96
2019-02-02T12:58:07.095Z,99454.23
2019-02-02T13:02:12.039Z,99461.65
2019-02-02T13:06:17.016Z,99470.68
2019-02-02T13:10:25.042Z,99482.05
2019-02-02T13:14:30.057Z,99492.31
2019-02-02T13:18:34.972Z,99493.47
2019-02-02T13:22:39.894Z,99488.56
2019-02-02T13:26:44.804Z,99503.11
2019-02-02T13:30:49.681Z,99502.30
2019-02-02T13:34:56.696Z,99506.40
2019-02-02T13:39:02.093Z,99511.84
2019-02-02T13:43:06.957Z,99508.57
2019-02-02T13:47:11.972Z,99516.61
2019-02-02T13:51:16.960Z,99523.92
2019-02-02T13:55:21.937Z,99527.48
2019-02-02T13:59:26.800Z,99540.74
2019-02-02T14:03:31.983Z,99539.88
2019-02-02T14:07:36.999Z,99541.11
2019-02-02T14:11:42.077Z,99545.03
2019-02-02T14:15:47.007Z,99557.74
2019-02-02T14:19:52.049Z,99563.38
2019-02-02T14:23:57.279Z,99578.81
2019-02-02T14:28:02.280Z,99590.20
2019-02-02T14:32:07.178Z,99588.31
2019-02-02T14:36:12.206Z,99591.90
2019-02-02T14:40:18.477Z,99606.32
2019-02-02T14:44:23.918Z,99604.96
2019-02-02T14:48:28.919Z,99617.69
2019-02-02T14:52:34.234Z,99622.12
2019-02-02T14:56:39.217Z,99628.07
2019-02-02T15:00:44.125Z,99637.56
2019-02-02T15:04:49.109Z,99647.20
2019-02-02T15:08:54.107Z,99662.33
2019-02-02T15:12:59.349Z,99664.02
2019-02-02T15:17:04.315Z,99682.37
2019-02-02T15:21:09.227Z,99689.13
2019-02-02T15:25:14.568Z,99696.30
2019-02-02T15:29:19.971Z,99708.83
2019-02-02T15:33:24.988Z,99711.03
2019-02-02T15:37:30.310Z,99719.20
2019-02-02T15:41:35.195Z,99728.68
2019-02-02T15:45:40.162Z,99729.22
2019-02-02T15:49:45.107Z,99739.05
2019-02-02T15:53:50.321Z,99747.69
2019-02-02T15:57:55.969Z,99755.16
2019-02-02T16:02:00.935Z,99759.75
2019-02-02T16:06:05.913Z,99765.84
2019-02-02T16:10:15.554Z,99771.42
2019-02-02T16:14:20.625Z,99784.64
2019-02-02T16:18:25.522Z,99793.23
2019-02-02T16:22:30.439Z,99805.97
2019-02-02T16:26:35.342Z,99816.78
2019-02-02T16:30:40.351Z,99824.16
2019-02-02T16:34:45.270Z,99837.83
2019-02-02T16:38:50.812Z,99846.11
2019-02-02T16:42:55.679Z,99848.98
2019-02-02T16:47:00.577Z,99856.39
2019-02-02T16:51:05.567Z,99873.77
2019-02-02T16:55:11.132Z,99871.93
2019-02-02T16:59:16.049Z,99894.66
2019-02-02T17:03:20.994Z,99899.04
2019-02-02T17:07:26.210Z,99912.47
2019-02-02T17:11:31.212Z,99918.12
2019-02-02T17:15:36.459Z,99930.17
2019-02-02T17:19:41.367Z,99936.27
2019-02-02T17:23:46.596Z,99944.41
2019-02-02T17:27:51.468Z,99950.94
2019-02-02T17:31:56.482Z,99960.77
2019-02-02T17:36:01.387Z,99977.33
2019-02-02T17:40:12.529Z,99984.11
2019-02-02T17:44:17.751Z,99995.71
2019-02-02T17:48:22.938Z,100007.80
2019-02-02T17:52:27.851Z,100013.34
2019-02-02T17:56:32.764Z,100024.98
2019-02-02T18:00:43.583Z,100021.36
2019-02-02T18:04:48.468Z,100025.57
2019-02-02T18:08:53.766Z,100031.17
2019-02-02T18:12:58.661Z,100047.45
2019-02-02T18:17:03.654Z,100062.52
2019-02-02T18:21:08.620Z,100065.39
2019-02-02T18:25:14.324Z,100086.55
2019-02-02T18:29:19.340Z,100087.85
2019-02-02T18:33:24.263Z,100101.18
2019-02-02T18:37:29.403Z,100111.48
2019-02-02T18:41:34.310Z,100121.47
2019-02-02T18:45:39.197Z,100128.77
2019-02-02T18:49:44.145Z,100131.11
2019-02-02T18:53:49.071Z,100143.17
2019-02-02T18:57:53.989Z,100145.59
2019-02-02T19:01:58.886Z,100148.22
2019-02-02T19:06:03.775Z,100155.55
2019-02-02T19:10:16.197Z,100163.58
2019-02-02T19:14:21.103Z,100171.32
2019-02-02T19:18:26.011Z,100173.89
2019-02-02T19:22:30.904Z,100181.04
2019-02-02T19:26:35.844Z,100185.77
2019-02-02T19:30:40.826Z,100198.17
2019-02-02T19:34:45.736Z,100216.51
2019-02-02T19:38:50.619Z,100232.45
2019-02-02T19:42:55.537Z,100243.50
2019-02-02T19:47:00.743Z,100236.09
2019-02-02T19:51:05.667Z,100237.78
2019-02-02T19:55:14.704Z,100249.84
2019-02-02T19:59:17.440Z,100266.86
2019-02-02T20:03:22.354Z,100268.91
2019-02-02T20:07:27.621Z,100282.05
2019-02-02T20:11:32.515Z,100288.25
2019-02-02T20:15:37.398Z,100298.12
2019-02-02T20:19:42.370Z,100302.19
2019-02-02T20:23:47.272Z,100310.55
2019-02-02T20:27:52.187Z,100331.69
2019-02-02T20:31:57.181Z,100336.97
2019-02-02T20:36:02.148Z,100344.65
2019-02-02T20:40:09.511Z,100348.49
2019-02-02T20:44:14.506Z,100356.45
2019-02-02T20:48:19.761Z,100363.72
2019-02-02T20:52:24.696Z,100377.23
2019-02-02T20:56:29.689Z,100387.73
2019-02-02T21:00:35.234Z,100391.15
2019-02-02T21:04:40.117Z,100395.05
2019-02-02T21:08:45.695Z,100403.51
2019-02-02T21:12:50.582Z,100414.06
2019-02-02T21:16:55.558Z,100425.21
2019-02-02T21:21:00.841Z,100449.23
2019-02-02T21:25:06.356Z,100457.50
2019-02-02T21:29:11.581Z,100459.89
2019-02-02T21:33:16.924Z,100466.17
2019-02-02T21:37:21.923Z,100481.47
2019-02-02T21:41:26.857Z,100477.31
2019-02-02T21:45:32.377Z,100489.02
2019-02-02T21:49:37.811Z,100499.45
2019-02-02T21:53:43.523Z,100512.89
2019-02-02T21:57:48.951Z,100520.19
2019-02-02T22:01:54.252Z,100520.33
2019-02-02T22:05:59.648Z,100536.05
2019-02-02T22:10:06.317Z,100538.39
2019-02-02T22:14:11.744Z,100548.41
2019-02-02T22:18:21.586Z,100559.40
2019-02-02T22:22:24.864Z,100564.59
2019-02-02T22:26:30.277Z,100575.97
2019-02-02T22:30:37.871Z,100590.25
2019-02-02T22:34:43.240Z,100597.31
2019-02-02T22:38:48.743Z,100601.61
2019-02-02T22:42:54.159Z,100610.75
2019-02-02T22:46:59.660Z,100616.69
2019-02-02T22:51:05.096Z,100629.61
2019-02-02T22:55:11.866Z,100639.62
2019-02-02T22:59:17.325Z,100648.47
2019-02-02T23:03:28.906Z,100657.60
2019-02-02T23:08:28.039Z,100652.95
2019-02-02T23:13:17.424Z,100659.27
2019-02-02T23:17:22.831Z,100672.97
2019-02-02T23:21:29.947Z,100684.17
2019-02-02T23:25:35.428Z,100682.23
2019-02-02T23:29:40.855Z,100693.03
2019-02-02T23:33:46.385Z,100702.84
2019-02-02T23:37:51.803Z,100708.67
2019-02-02T23:41:57.224Z,100704.59
2019-02-02T23:46:02.646Z,100708.67
2019-02-02T23:50:08.839Z,100704.59
2019-02-02T23:54:14.267Z,100706.56
2019-02-02T23:58:19.683Z,100698.22
